sensor_id;sensor_type;location;lat;lon;timestamp;P1;durP1;ratioP1;P2;durP2;ratioP2
39554;SDS011;25231;48.746;9.234;2022-12-24T00:01:27;4.70;;;3.70;;
39554;SDS011;25231;48.746;9.234;2022-12-24T00:03:52;6.43;;;4.43;;
39554;SDS011;25231;48.746;9.234;2022-12-24T00:06:19;10.60;;;7.10;;
39554;SDS011;25231;48.746;9.234;2022-12-24T00:08:46;8.53;;;7.87;;
39554;SDS011;25231;48.746;9.234;2022-12-24T00:11:12;11.13;;;5.67;;
39554;SDS011;25231;48.746;9.234;2022-12-24T00:13:37;8.57;;;5.70;;
39554;SDS011;25231;48.746;9.234;2022-12-24T00:16:04;9.47;;;6.40;;
39554;SDS011;25231;48.746;9.234;2022-12-24T00:18:30;6.53;;;6.03;;
39554;SDS011;25231;48.746;9.234;2022-12-24T00:20:55;6.83;;;6.10;;
39554;SDS011;25231;48.746;9.234;2022-12-24T00:23:21;6.70;;;6.10;;
39554;SDS011;25231;48.746;9.234;2022-12-24T00:25:46;9.00;;;6.90;;
39554;SDS011;25231;48.746;9.234;2022-12-24T00:28:12;6.27;;;5.67;;
39554;SDS011;25231;48.746;9.234;2022-12-24T00:30:38;7.33;;;6.70;;
39554;SDS011;25231;48.746;9.234;2022-12-24T00:33:05;6.73;;;5.23;;
39554;SDS011;25231;48.746;9.234;2022-12-24T00:35:32;10.43;;;5.07;;
39554;SDS011;25231;48.746;9.234;2022-12-24T00:37:58;7.33;;;5.70;;
39554;SDS011;25231;48.746;9.234;2022-12-24T00:40:23;7.93;;;4.50;;
39554;SDS011;25231;48.746;9.234;2022-12-24T00:42:49;6.67;;;5.03;;
39554;SDS011;25231;48.746;9.234;2022-12-24T00:45:14;4.97;;;4.50;;
39554;SDS011;25231;48.746;9.234;2022-12-24T00:47:39;6.57;;;5.17;;
39554;SDS011;25231;48.746;9.234;2022-12-24T00:50:05;8.03;;;5.23;;
39554;SDS011;25231;48.746;9.234;2022-12-24T00:52:31;5.00;;;4.50;;
39554;SDS011;25231;48.746;9.234;2022-12-24T00:54:56;4.10;;;3.80;;
39554;SDS011;25231;48.746;9.234;2022-12-24T00:57:21;7.13;;;5.13;;
39554;SDS011;25231;48.746;9.234;2022-12-24T00:59:47;6.97;;;4.60;;
39554;SDS011;25231;48.746;9.234;2022-12-24T01:02:12;8.23;;;4.80;;
39554;SDS011;25231;48.746;9.234;2022-12-24T01:04:37;6.10;;;5.53;;
39554;SDS011;25231;48.746;9.234;2022-12-24T01:07:21;5.77;;;5.23;;
39554;SDS011;25231;48.746;9.234;2022-12-24T01:09:47;6.00;;;5.23;;
39554;SDS011;25231;48.746;9.234;2022-12-24T01:12:12;5.43;;;5.00;;
39554;SDS011;25231;48.746;9.234;2022-12-24T01:14:37;7.47;;;5.10;;
39554;SDS011;25231;48.746;9.234;2022-12-24T01:17:03;7.00;;;4.30;;
39554;SDS011;25231;48.746;9.234;2022-12-24T01:19:29;9.90;;;4.03;;
39554;SDS011;25231;48.746;9.234;2022-12-24T01:21:54;6.20;;;3.93;;
39554;SDS011;25231;48.746;9.234;2022-12-24T01:24:20;6.60;;;4.03;;
39554;SDS011;25231;48.746;9.234;2022-12-24T01:26:45;4.67;;;3.97;;
39554;SDS011;25231;48.746;9.234;2022-12-24T01:29:11;4.70;;;4.03;;
39554;SDS011;25231;48.746;9.234;2022-12-24T01:31:36;4.53;;;4.13;;
39554;SDS011;25231;48.746;9.234;2022-12-24T01:34:02;6.60;;;4.40;;
39554;SDS011;25231;48.746;9.234;2022-12-24T01:36:27;4.67;;;4.03;;
39554;SDS011;25231;48.746;9.234;2022-12-24T01:38:53;6.63;;;4.27;;
39554;SDS011;25231;48.746;9.234;2022-12-24T01:41:20;7.57;;;4.10;;
39554;SDS011;25231;48.746;9.234;2022-12-24T01:46:51;5.37;;;4.63;;
39554;SDS011;25231;48.746;9.234;2022-12-24T01:49:26;5.67;;;3.70;;
39554;SDS011;25231;48.746;9.234;2022-12-24T01:51:56;5.30;;;4.83;;
39554;SDS011;25231;48.746;9.234;2022-12-24T01:54:37;7.73;;;4.37;;
39554;SDS011;25231;48.746;9.234;2022-12-24T01:57:26;5.37;;;4.27;;
39554;SDS011;25231;48.746;9.234;2022-12-24T01:59:54;9.37;;;7.13;;
39554;SDS011;25231;48.746;9.234;2022-12-24T02:02:24;8.37;;;5.13;;
39554;SDS011;25231;48.746;9.234;2022-12-24T02:07:34;5.87;;;5.27;;
39554;SDS011;25231;48.746;9.234;2022-12-24T02:10:00;8.87;;;5.43;;
39554;SDS011;25231;48.746;9.234;2022-12-24T02:12:26;8.63;;;5.33;;
39554;SDS011;25231;48.746;9.234;2022-12-24T02:14:57;10.70;;;5.80;;
39554;SDS011;25231;48.746;9.234;2022-12-24T02:17:25;10.73;;;4.87;;
39554;SDS011;25231;48.746;9.234;2022-12-24T02:22:51;8.80;;;5.77;;
39554;SDS011;25231;48.746;9.234;2022-12-24T02:25:31;13.70;;;5.13;;
39554;SDS011;25231;48.746;9.234;2022-12-24T02:41:36;8.40;;;5.17;;
39554;SDS011;25231;48.746;9.234;2022-12-24T02:44:29;11.00;;;4.93;;
39554;SDS011;25231;48.746;9.234;2022-12-24T02:46:57;9.93;;;5.63;;
39554;SDS011;25231;48.746;9.234;2022-12-24T02:49:24;16.30;;;5.60;;
39554;SDS011;25231;48.746;9.234;2022-12-24T02:51:50;12.97;;;6.17;;
39554;SDS011;25231;48.746;9.234;2022-12-24T02:54:15;7.23;;;5.67;;
39554;SDS011;25231;48.746;9.234;2022-12-24T02:56:58;11.97;;;6.27;;
39554;SDS011;25231;48.746;9.234;2022-12-24T03:05:35;10.67;;;6.63;;
39554;SDS011;25231;48.746;9.234;2022-12-24T03:08:25;6.50;;;4.83;;
39554;SDS011;25231;48.746;9.234;2022-12-24T03:11:06;8.27;;;5.50;;
39554;SDS011;25231;48.746;9.234;2022-12-24T03:13:34;10.57;;;5.40;;
39554;SDS011;25231;48.746;9.234;2022-12-24T03:16:02;6.23;;;5.63;;
39554;SDS011;25231;48.746;9.234;2022-12-24T03:18:29;11.73;;;5.70;;
39554;SDS011;25231;48.746;9.234;2022-12-24T03:20:57;11.63;;;5.57;;
39554;SDS011;25231;48.746;9.234;2022-12-24T03:23:26;11.43;;;4.80;;
39554;SDS011;25231;48.746;9.234;2022-12-24T03:25:51;9.00;;;4.87;;
39554;SDS011;25231;48.746;9.234;2022-12-24T03:28:17;11.77;;;5.07;;
39554;SDS011;25231;48.746;9.234;2022-12-24T03:30:45;7.77;;;4.73;;
39554;SDS011;25231;48.746;9.234;2022-12-24T03:33:12;9.67;;;5.70;;
39554;SDS011;25231;48.746;9.234;2022-12-24T03:35:38;9.77;;;5.03;;
39554;SDS011;25231;48.746;9.234;2022-12-24T03:38:04;9.07;;;5.77;;
39554;SDS011;25231;48.746;9.234;2022-12-24T03:40:30;10.50;;;6.00;;
39554;SDS011;25231;48.746;9.234;2022-12-24T03:42:55;10.40;;;6.37;;
39554;SDS011;25231;48.746;9.234;2022-12-24T03:45:20;7.53;;;5.53;;
39554;SDS011;25231;48.746;9.234;2022-12-24T03:47:46;7.37;;;6.00;;
39554;SDS011;25231;48.746;9.234;2022-12-24T03:50:11;8.40;;;6.10;;
39554;SDS011;25231;48.746;9.234;2022-12-24T03:52:36;12.03;;;7.40;;
39554;SDS011;25231;48.746;9.234;2022-12-24T03:55:02;16.50;;;6.27;;
39554;SDS011;25231;48.746;9.234;2022-12-24T03:57:28;9.90;;;6.10;;
39554;SDS011;25231;48.746;9.234;2022-12-24T03:59:53;9.60;;;6.00;;
39554;SDS011;25231;48.746;9.234;2022-12-24T04:02:18;8.47;;;4.50;;
39554;SDS011;25231;48.746;9.234;2022-12-24T04:04:44;11.03;;;4.40;;
39554;SDS011;25231;48.746;9.234;2022-12-24T04:07:09;8.80;;;4.47;;
39554;SDS011;25231;48.746;9.234;2022-12-24T04:09:35;10.77;;;5.13;;
39554;SDS011;25231;48.746;9.234;2022-12-24T04:12:00;10.73;;;4.73;;
39554;SDS011;25231;48.746;9.234;2022-12-24T04:14:26;5.20;;;4.30;;
39554;SDS011;25231;48.746;9.234;2022-12-24T04:16:51;8.90;;;4.17;;
39554;SDS011;25231;48.746;9.234;2022-12-24T04:19:16;11.40;;;4.50;;
39554;SDS011;25231;48.746;9.234;2022-12-24T04:21:42;8.00;;;4.70;;
39554;SDS011;25231;48.746;9.234;2022-12-24T04:24:07;7.70;;;4.73;;
39554;SDS011;25231;48.746;9.234;2022-12-24T04:26:32;11.67;;;4.83;;
39554;SDS011;25231;48.746;9.234;2022-12-24T04:28:58;7.73;;;5.17;;
39554;SDS011;25231;48.746;9.234;2022-12-24T04:31:23;7.83;;;4.93;;
39554;SDS011;25231;48.746;9.234;2022-12-24T04:33:49;11.60;;;5.20;;
39554;SDS011;25231;48.746;9.234;2022-12-24T04:36:16;9.67;;;5.00;;
39554;SDS011;25231;48.746;9.234;2022-12-24T04:38:43;13.13;;;5.57;;
39554;SDS011;25231;48.746;9.234;2022-12-24T04:41:10;11.20;;;4.77;;
39554;SDS011;25231;48.746;9.234;2022-12-24T04:43:43;5.97;;;3.80;;
39554;SDS011;25231;48.746;9.234;2022-12-24T04:46:10;6.20;;;4.23;;
39554;SDS011;25231;48.746;9.234;2022-12-24T04:48:39;7.57;;;4.40;;
39554;SDS011;25231;48.746;9.234;2022-12-24T04:51:05;6.87;;;4.90;;
39554;SDS011;25231;48.746;9.234;2022-12-24T04:53:32;8.00;;;4.10;;
39554;SDS011;25231;48.746;9.234;2022-12-24T04:55:58;5.97;;;4.30;;
39554;SDS011;25231;48.746;9.234;2022-12-24T04:58:24;10.03;;;6.33;;
39554;SDS011;25231;48.746;9.234;2022-12-24T05:00:50;9.97;;;4.73;;
39554;SDS011;25231;48.746;9.234;2022-12-24T05:03:15;12.10;;;5.17;;
39554;SDS011;25231;48.746;9.234;2022-12-24T05:05:41;7.00;;;4.43;;
39554;SDS011;25231;48.746;9.234;2022-12-24T05:08:06;4.97;;;4.43;;
39554;SDS011;25231;48.746;9.234;2022-12-24T05:10:31;9.03;;;4.70;;
39554;SDS011;25231;48.746;9.234;2022-12-24T05:12:57;6.63;;;4.00;;
39554;SDS011;25231;48.746;9.234;2022-12-24T05:15:22;8.93;;;5.20;;
39554;SDS011;25231;48.746;9.234;2022-12-24T05:17:48;11.80;;;5.10;;
39554;SDS011;25231;48.746;9.234;2022-12-24T05:20:13;8.87;;;4.23;;
39554;SDS011;25231;48.746;9.234;2022-12-24T05:22:39;9.30;;;5.07;;
39554;SDS011;25231;48.746;9.234;2022-12-24T05:25:23;11.43;;;5.17;;
39554;SDS011;25231;48.746;9.234;2022-12-24T05:28:09;7.20;;;4.43;;
39554;SDS011;25231;48.746;9.234;2022-12-24T05:30:34;7.47;;;4.63;;
39554;SDS011;25231;48.746;9.234;2022-12-24T05:33:00;7.23;;;4.40;;
39554;SDS011;25231;48.746;9.234;2022-12-24T05:35:25;6.40;;;4.00;;
39554;SDS011;25231;48.746;9.234;2022-12-24T05:37:50;9.83;;;4.97;;
39554;SDS011;25231;48.746;9.234;2022-12-24T05:40:15;11.03;;;4.83;;
39554;SDS011;25231;48.746;9.234;2022-12-24T05:42:41;13.20;;;5.07;;
39554;SDS011;25231;48.746;9.234;2022-12-24T05:45:06;6.73;;;4.70;;
39554;SDS011;25231;48.746;9.234;2022-12-24T05:47:32;12.90;;;5.93;;
39554;SDS011;25231;48.746;9.234;2022-12-24T05:49:58;10.10;;;5.20;;
39554;SDS011;25231;48.746;9.234;2022-12-24T05:52:23;10.40;;;5.03;;
39554;SDS011;25231;48.746;9.234;2022-12-24T05:54:48;8.70;;;5.63;;
39554;SDS011;25231;48.746;9.234;2022-12-24T05:57:14;6.53;;;4.90;;
39554;SDS011;25231;48.746;9.234;2022-12-24T05:59:40;8.87;;;4.97;;
39554;SDS011;25231;48.746;9.234;2022-12-24T06:02:05;7.67;;;4.77;;
39554;SDS011;25231;48.746;9.234;2022-12-24T06:04:30;8.30;;;5.10;;
39554;SDS011;25231;48.746;9.234;2022-12-24T06:06:56;10.23;;;4.53;;
39554;SDS011;25231;48.746;9.234;2022-12-24T06:09:21;12.97;;;6.07;;
39554;SDS011;25231;48.746;9.234;2022-12-24T06:11:46;10.37;;;4.80;;
39554;SDS011;25231;48.746;9.234;2022-12-24T06:14:12;8.50;;;4.30;;
39554;SDS011;25231;48.746;9.234;2022-12-24T06:16:37;7.43;;;4.73;;
39554;SDS011;25231;48.746;9.234;2022-12-24T06:19:02;12.17;;;5.53;;
39554;SDS011;25231;48.746;9.234;2022-12-24T06:21:28;10.17;;;5.23;;
39554;SDS011;25231;48.746;9.234;2022-12-24T06:23:53;9.27;;;5.20;;
39554;SDS011;25231;48.746;9.234;2022-12-24T06:26:20;6.47;;;5.13;;
39554;SDS011;25231;48.746;9.234;2022-12-24T06:28:47;7.17;;;5.13;;
39554;SDS011;25231;48.746;9.234;2022-12-24T06:31:15;10.30;;;5.00;;
39554;SDS011;25231;48.746;9.234;2022-12-24T06:33:43;6.07;;;4.70;;
39554;SDS011;25231;48.746;9.234;2022-12-24T06:36:09;10.97;;;4.50;;
39554;SDS011;25231;48.746;9.234;2022-12-24T06:38:38;8.20;;;4.93;;
39554;SDS011;25231;48.746;9.234;2022-12-24T06:41:04;8.77;;;5.53;;
39554;SDS011;25231;48.746;9.234;2022-12-24T06:43:31;8.63;;;4.83;;
39554;SDS011;25231;48.746;9.234;2022-12-24T06:45:58;18.60;;;6.13;;
39554;SDS011;25231;48.746;9.234;2022-12-24T06:48:24;9.50;;;5.27;;
39554;SDS011;25231;48.746;9.234;2022-12-24T06:50:49;8.07;;;5.13;;
39554;SDS011;25231;48.746;9.234;2022-12-24T06:53:15;9.57;;;4.87;;
39554;SDS011;25231;48.746;9.234;2022-12-24T06:55:40;8.23;;;4.97;;
39554;SDS011;25231;48.746;9.234;2022-12-24T06:58:06;7.80;;;4.93;;
39554;SDS011;25231;48.746;9.234;2022-12-24T07:00:31;9.37;;;4.50;;
39554;SDS011;25231;48.746;9.234;2022-12-24T07:02:56;5.37;;;4.33;;
39554;SDS011;25231;48.746;9.234;2022-12-24T07:05:22;6.83;;;6.17;;
39554;SDS011;25231;48.746;9.234;2022-12-24T07:07:47;8.53;;;4.80;;
39554;SDS011;25231;48.746;9.234;2022-12-24T07:10:13;10.10;;;4.33;;
39554;SDS011;25231;48.746;9.234;2022-12-24T07:12:41;10.73;;;5.73;;
39554;SDS011;25231;48.746;9.234;2022-12-24T07:15:07;8.27;;;5.17;;
39554;SDS011;25231;48.746;9.234;2022-12-24T07:17:33;12.20;;;6.07;;
39554;SDS011;25231;48.746;9.234;2022-12-24T07:19:58;8.57;;;7.00;;
39554;SDS011;25231;48.746;9.234;2022-12-24T07:22:24;11.67;;;8.70;;
39554;SDS011;25231;48.746;9.234;2022-12-24T07:24:49;7.27;;;6.67;;
39554;SDS011;25231;48.746;9.234;2022-12-24T07:27:14;11.03;;;6.80;;
39554;SDS011;25231;48.746;9.234;2022-12-24T07:29:40;10.10;;;5.77;;
39554;SDS011;25231;48.746;9.234;2022-12-24T07:32:05;7.30;;;6.07;;
39554;SDS011;25231;48.746;9.234;2022-12-24T07:34:31;8.53;;;5.37;;
39554;SDS011;25231;48.746;9.234;2022-12-24T07:36:56;7.00;;;5.50;;
39554;SDS011;25231;48.746;9.234;2022-12-24T07:39:21;11.80;;;5.83;;
39554;SDS011;25231;48.746;9.234;2022-12-24T07:41:47;8.90;;;5.43;;
39554;SDS011;25231;48.746;9.234;2022-12-24T07:44:14;7.50;;;5.67;;
39554;SDS011;25231;48.746;9.234;2022-12-24T07:46:40;6.27;;;4.67;;
39554;SDS011;25231;48.746;9.234;2022-12-24T07:49:05;8.77;;;4.93;;
39554;SDS011;25231;48.746;9.234;2022-12-24T07:51:31;7.27;;;5.20;;
39554;SDS011;25231;48.746;9.234;2022-12-24T07:53:57;8.47;;;4.90;;
39554;SDS011;25231;48.746;9.234;2022-12-24T07:56:22;8.93;;;6.40;;
39554;SDS011;25231;48.746;9.234;2022-12-24T07:58:49;10.33;;;6.97;;
39554;SDS011;25231;48.746;9.234;2022-12-24T08:01:15;10.00;;;7.03;;
39554;SDS011;25231;48.746;9.234;2022-12-24T08:03:40;8.13;;;6.07;;
39554;SDS011;25231;48.746;9.234;2022-12-24T08:06:06;10.50;;;6.77;;
39554;SDS011;25231;48.746;9.234;2022-12-24T08:08:32;8.53;;;7.50;;
39554;SDS011;25231;48.746;9.234;2022-12-24T08:11:01;8.57;;;7.63;;
39554;SDS011;25231;48.746;9.234;2022-12-24T08:13:27;13.47;;;8.40;;
39554;SDS011;25231;48.746;9.234;2022-12-24T08:15:53;8.73;;;7.73;;
39554;SDS011;25231;48.746;9.234;2022-12-24T08:18:19;9.53;;;7.17;;
39554;SDS011;25231;48.746;9.234;2022-12-24T08:20:44;8.60;;;7.93;;
39554;SDS011;25231;48.746;9.234;2022-12-24T08:23:10;11.57;;;8.97;;
39554;SDS011;25231;48.746;9.234;2022-12-24T08:25:35;12.60;;;7.93;;
39554;SDS011;25231;48.746;9.234;2022-12-24T08:28:01;11.07;;;9.30;;
39554;SDS011;25231;48.746;9.234;2022-12-24T08:30:26;11.40;;;7.97;;
39554;SDS011;25231;48.746;9.234;2022-12-24T08:32:52;9.43;;;7.10;;
39554;SDS011;25231;48.746;9.234;2022-12-24T08:35:18;9.67;;;5.53;;
39554;SDS011;25231;48.746;9.234;2022-12-24T08:37:43;10.37;;;4.93;;
39554;SDS011;25231;48.746;9.234;2022-12-24T08:40:09;8.23;;;5.50;;
39554;SDS011;25231;48.746;9.234;2022-12-24T08:42:35;5.27;;;4.33;;
39554;SDS011;25231;48.746;9.234;2022-12-24T08:45:00;6.97;;;6.10;;
39554;SDS011;25231;48.746;9.234;2022-12-24T08:47:26;8.83;;;6.23;;
39554;SDS011;25231;48.746;9.234;2022-12-24T08:49:51;9.90;;;6.37;;
39554;SDS011;25231;48.746;9.234;2022-12-24T08:52:16;10.10;;;6.10;;
39554;SDS011;25231;48.746;9.234;2022-12-24T08:54:42;11.57;;;6.33;;
39554;SDS011;25231;48.746;9.234;2022-12-24T08:57:07;6.90;;;6.07;;
39554;SDS011;25231;48.746;9.234;2022-12-24T08:59:32;14.60;;;8.83;;
39554;SDS011;25231;48.746;9.234;2022-12-24T09:01:58;8.47;;;5.63;;
39554;SDS011;25231;48.746;9.234;2022-12-24T09:04:23;8.97;;;6.27;;
39554;SDS011;25231;48.746;9.234;2022-12-24T09:06:49;11.53;;;6.23;;
39554;SDS011;25231;48.746;9.234;2022-12-24T09:09:14;11.10;;;6.57;;
39554;SDS011;25231;48.746;9.234;2022-12-24T09:11:39;13.73;;;7.37;;
39554;SDS011;25231;48.746;9.234;2022-12-24T09:14:05;7.80;;;6.67;;
39554;SDS011;25231;48.746;9.234;2022-12-24T09:16:30;13.23;;;6.97;;
39554;SDS011;25231;48.746;9.234;2022-12-24T09:18:56;11.27;;;6.53;;
39554;SDS011;25231;48.746;9.234;2022-12-24T09:21:22;14.37;;;6.70;;
39554;SDS011;25231;48.746;9.234;2022-12-24T09:23:47;7.83;;;4.97;;
39554;SDS011;25231;48.746;9.234;2022-12-24T09:26:17;11.03;;;4.90;;
39554;SDS011;25231;48.746;9.234;2022-12-24T09:28:44;9.70;;;3.93;;
39554;SDS011;25231;48.746;9.234;2022-12-24T09:31:11;10.93;;;4.60;;
39554;SDS011;25231;48.746;9.234;2022-12-24T09:33:38;7.87;;;3.83;;
39554;SDS011;25231;48.746;9.234;2022-12-24T09:36:04;12.63;;;4.57;;
39554;SDS011;25231;48.746;9.234;2022-12-24T09:38:31;12.03;;;5.33;;
39554;SDS011;25231;48.746;9.234;2022-12-24T09:40:57;13.00;;;5.03;;
39554;SDS011;25231;48.746;9.234;2022-12-24T09:43:25;11.10;;;4.63;;
39554;SDS011;25231;48.746;9.234;2022-12-24T09:48:36;10.80;;;5.30;;
39554;SDS011;25231;48.746;9.234;2022-12-24T09:51:07;12.17;;;5.23;;
39554;SDS011;25231;48.746;9.234;2022-12-24T09:53:39;10.03;;;5.47;;
39554;SDS011;25231;48.746;9.234;2022-12-24T09:56:20;9.47;;;5.87;;
39554;SDS011;25231;48.746;9.234;2022-12-24T09:58:58;12.60;;;4.70;;
39554;SDS011;25231;48.746;9.234;2022-12-24T10:01:27;5.77;;;4.17;;
39554;SDS011;25231;48.746;9.234;2022-12-24T10:03:53;11.63;;;4.73;;
39554;SDS011;25231;48.746;9.234;2022-12-24T10:20:23;12.40;;;6.20;;
39554;SDS011;25231;48.746;9.234;2022-12-24T10:28:14;13.23;;;5.63;;
39554;SDS011;25231;48.746;9.234;2022-12-24T10:30:43;9.93;;;5.67;;
39554;SDS011;25231;48.746;9.234;2022-12-24T10:33:15;9.43;;;4.30;;
39554;SDS011;25231;48.746;9.234;2022-12-24T10:35:45;8.93;;;4.60;;
39554;SDS011;25231;48.746;9.234;2022-12-24T10:38:15;11.87;;;5.80;;
39554;SDS011;25231;48.746;9.234;2022-12-24T10:40:47;9.17;;;5.63;;
39554;SDS011;25231;48.746;9.234;2022-12-24T10:43:17;7.73;;;4.67;;
39554;SDS011;25231;48.746;9.234;2022-12-24T10:45:51;6.17;;;3.90;;
39554;SDS011;25231;48.746;9.234;2022-12-24T10:48:24;7.20;;;4.10;;
39554;SDS011;25231;48.746;9.234;2022-12-24T10:50:58;9.80;;;4.13;;
39554;SDS011;25231;48.746;9.234;2022-12-24T10:56:07;9.73;;;4.40;;
39554;SDS011;25231;48.746;9.234;2022-12-24T10:58:35;16.90;;;4.50;;
39554;SDS011;25231;48.746;9.234;2022-12-24T11:01:01;10.77;;;4.80;;
39554;SDS011;25231;48.746;9.234;2022-12-24T11:03:31;7.60;;;4.43;;
39554;SDS011;25231;48.746;9.234;2022-12-24T11:06:03;10.27;;;5.50;;
39554;SDS011;25231;48.746;9.234;2022-12-24T11:08:31;14.07;;;10.57;;
39554;SDS011;25231;48.746;9.234;2022-12-24T11:10:59;14.97;;;12.20;;
39554;SDS011;25231;48.746;9.234;2022-12-24T11:13:27;12.67;;;8.27;;
39554;SDS011;25231;48.746;9.234;2022-12-24T11:16:04;10.13;;;7.60;;
39554;SDS011;25231;48.746;9.234;2022-12-24T11:18:31;9.73;;;6.50;;
39554;SDS011;25231;48.746;9.234;2022-12-24T11:20:58;12.03;;;6.57;;
39554;SDS011;25231;48.746;9.234;2022-12-24T11:23:25;9.97;;;5.13;;
39554;SDS011;25231;48.746;9.234;2022-12-24T11:25:52;8.80;;;5.70;;
39554;SDS011;25231;48.746;9.234;2022-12-24T11:28:24;8.90;;;5.00;;
39554;SDS011;25231;48.746;9.234;2022-12-24T11:31:01;11.93;;;5.43;;
39554;SDS011;25231;48.746;9.234;2022-12-24T11:33:28;10.90;;;6.50;;
39554;SDS011;25231;48.746;9.234;2022-12-24T11:36:02;10.47;;;6.73;;
39554;SDS011;25231;48.746;9.234;2022-12-24T11:38:31;11.03;;;6.47;;
39554;SDS011;25231;48.746;9.234;2022-12-24T11:41:01;10.27;;;5.57;;
39554;SDS011;25231;48.746;9.234;2022-12-24T11:43:33;7.87;;;6.10;;
39554;SDS011;25231;48.746;9.234;2022-12-24T11:46:20;8.10;;;6.53;;
39554;SDS011;25231;48.746;9.234;2022-12-24T11:51:35;10.77;;;6.43;;
39554;SDS011;25231;48.746;9.234;2022-12-24T11:56:43;11.97;;;7.90;;
39554;SDS011;25231;48.746;9.234;2022-12-24T11:59:17;11.57;;;6.93;;
39554;SDS011;25231;48.746;9.234;2022-12-24T12:04:52;11.83;;;4.37;;
39554;SDS011;25231;48.746;9.234;2022-12-24T12:07:24;10.27;;;7.33;;
39554;SDS011;25231;48.746;9.234;2022-12-24T12:09:56;7.50;;;4.97;;
39554;SDS011;25231;48.746;9.234;2022-12-24T12:12:27;8.33;;;3.73;;
39554;SDS011;25231;48.746;9.234;2022-12-24T12:15:03;11.53;;;4.23;;
39554;SDS011;25231;48.746;9.234;2022-12-24T12:17:38;9.13;;;4.53;;
39554;SDS011;25231;48.746;9.234;2022-12-24T12:20:24;9.77;;;7.70;;
39554;SDS011;25231;48.746;9.234;2022-12-24T12:23:17;34.33;;;31.90;;
39554;SDS011;25231;48.746;9.234;2022-12-24T12:25:45;28.23;;;26.03;;
39554;SDS011;25231;48.746;9.234;2022-12-24T12:28:22;14.57;;;13.10;;
39554;SDS011;25231;48.746;9.234;2022-12-24T12:30:59;12.43;;;11.23;;
39554;SDS011;25231;48.746;9.234;2022-12-24T12:33:35;12.93;;;11.60;;
39554;SDS011;25231;48.746;9.234;2022-12-24T12:36:23;11.47;;;9.17;;
39554;SDS011;25231;48.746;9.234;2022-12-24T12:38:54;10.67;;;9.33;;
39554;SDS011;25231;48.746;9.234;2022-12-24T12:44:19;10.40;;;6.67;;
39554;SDS011;25231;48.746;9.234;2022-12-24T12:47:26;10.83;;;6.60;;
39554;SDS011;25231;48.746;9.234;2022-12-24T12:58:49;9.03;;;5.43;;
39554;SDS011;25231;48.746;9.234;2022-12-24T13:13:18;10.03;;;5.37;;
39554;SDS011;25231;48.746;9.234;2022-12-24T13:18:29;13.33;;;5.97;;
39554;SDS011;25231;48.746;9.234;2022-12-24T13:21:17;11.57;;;5.70;;
39554;SDS011;25231;48.746;9.234;2022-12-24T13:23:46;7.43;;;5.03;;
39554;SDS011;25231;48.746;9.234;2022-12-24T13:26:12;10.60;;;5.57;;
39554;SDS011;25231;48.746;9.234;2022-12-24T13:28:39;11.03;;;5.73;;
39554;SDS011;25231;48.746;9.234;2022-12-24T13:33:48;9.50;;;5.37;;
39554;SDS011;25231;48.746;9.234;2022-12-24T13:36:16;14.33;;;6.47;;
39554;SDS011;25231;48.746;9.234;2022-12-24T13:38:53;7.33;;;6.27;;
39554;SDS011;25231;48.746;9.234;2022-12-24T13:44:01;10.33;;;6.10;;
39554;SDS011;25231;48.746;9.234;2022-12-24T13:49:43;11.23;;;7.07;;
39554;SDS011;25231;48.746;9.234;2022-12-24T13:54:49;11.17;;;7.00;;
39554;SDS011;25231;48.746;9.234;2022-12-24T13:57:31;15.43;;;7.53;;
39554;SDS011;25231;48.746;9.234;2022-12-24T14:00:00;9.80;;;7.00;;
39554;SDS011;25231;48.746;9.234;2022-12-24T14:02:25;11.67;;;8.47;;
39554;SDS011;25231;48.746;9.234;2022-12-24T14:04:53;11.17;;;5.80;;
39554;SDS011;25231;48.746;9.234;2022-12-24T14:07:25;8.63;;;6.77;;
39554;SDS011;25231;48.746;9.234;2022-12-24T14:09:50;11.93;;;7.57;;
39554;SDS011;25231;48.746;9.234;2022-12-24T14:14:57;8.80;;;6.67;;
39554;SDS011;25231;48.746;9.234;2022-12-24T14:17:25;12.03;;;7.17;;
39554;SDS011;25231;48.746;9.234;2022-12-24T14:19:57;9.00;;;7.27;;
39554;SDS011;25231;48.746;9.234;2022-12-24T14:25:00;11.20;;;7.27;;
39554;SDS011;25231;48.746;9.234;2022-12-24T14:27:37;11.40;;;6.23;;
39554;SDS011;25231;48.746;9.234;2022-12-24T14:30:07;12.70;;;8.07;;
39554;SDS011;25231;48.746;9.234;2022-12-24T14:32:42;7.70;;;6.73;;
39554;SDS011;25231;48.746;9.234;2022-12-24T14:37:40;11.90;;;6.27;;
39554;SDS011;25231;48.746;9.234;2022-12-24T14:40:16;12.20;;;7.10;;
39554;SDS011;25231;48.746;9.234;2022-12-24T14:42:52;11.33;;;6.33;;
39554;SDS011;25231;48.746;9.234;2022-12-24T14:50:39;14.83;;;13.37;;
39554;SDS011;25231;48.746;9.234;2022-12-24T14:55:48;15.87;;;14.47;;
39554;SDS011;25231;48.746;9.234;2022-12-24T15:00:52;8.83;;;6.93;;
39554;SDS011;25231;48.746;9.234;2022-12-24T15:03:21;10.40;;;9.30;;
39554;SDS011;25231;48.746;9.234;2022-12-24T15:05:49;15.87;;;13.77;;
39554;SDS011;25231;48.746;9.234;2022-12-24T15:08:17;16.37;;;14.20;;
39554;SDS011;25231;48.746;9.234;2022-12-24T15:10:51;20.50;;;8.07;;
39554;SDS011;25231;48.746;9.234;2022-12-24T15:13:40;12.97;;;5.63;;
39554;SDS011;25231;48.746;9.234;2022-12-24T15:16:12;9.53;;;5.07;;
39554;SDS011;25231;48.746;9.234;2022-12-24T15:18:53;10.27;;;5.07;;
39554;SDS011;25231;48.746;9.234;2022-12-24T15:24:05;15.67;;;14.17;;
39554;SDS011;25231;48.746;9.234;2022-12-24T15:26:48;17.80;;;11.43;;
39554;SDS011;25231;48.746;9.234;2022-12-24T15:29:18;12.47;;;11.17;;
39554;SDS011;25231;48.746;9.234;2022-12-24T15:31:51;11.17;;;9.03;;
39554;SDS011;25231;48.746;9.234;2022-12-24T15:34:37;16.17;;;8.00;;
39554;SDS011;25231;48.746;9.234;2022-12-24T15:39:38;16.73;;;8.87;;
39554;SDS011;25231;48.746;9.234;2022-12-24T15:42:05;12.63;;;8.47;;
39554;SDS011;25231;48.746;9.234;2022-12-24T15:44:37;14.63;;;8.70;;
39554;SDS011;25231;48.746;9.234;2022-12-24T15:47:07;15.20;;;10.83;;
39554;SDS011;25231;48.746;9.234;2022-12-24T15:49:42;9.10;;;7.33;;
39554;SDS011;25231;48.746;9.234;2022-12-24T15:52:11;12.13;;;6.67;;
39554;SDS011;25231;48.746;9.234;2022-12-24T15:54:46;8.73;;;7.40;;
39554;SDS011;25231;48.746;9.234;2022-12-24T15:59:57;16.23;;;9.33;;
39554;SDS011;25231;48.746;9.234;2022-12-24T16:10:37;13.03;;;7.73;;
39554;SDS011;25231;48.746;9.234;2022-12-24T16:13:15;11.00;;;7.97;;
39554;SDS011;25231;48.746;9.234;2022-12-24T16:16:03;12.53;;;7.50;;
39554;SDS011;25231;48.746;9.234;2022-12-24T16:21:22;16.90;;;9.30;;
39554;SDS011;25231;48.746;9.234;2022-12-24T16:23:52;12.10;;;7.53;;
39554;SDS011;25231;48.746;9.234;2022-12-24T16:26:19;9.93;;;7.37;;
39554;SDS011;25231;48.746;9.234;2022-12-24T16:28:45;11.57;;;7.30;;
39554;SDS011;25231;48.746;9.234;2022-12-24T16:31:15;9.33;;;7.03;;
39554;SDS011;25231;48.746;9.234;2022-12-24T16:33:42;13.77;;;7.53;;
39554;SDS011;25231;48.746;9.234;2022-12-24T16:36:08;7.80;;;6.77;;
39554;SDS011;25231;48.746;9.234;2022-12-24T16:38:34;11.37;;;6.70;;
39554;SDS011;25231;48.746;9.234;2022-12-24T16:41:19;9.80;;;7.20;;
39554;SDS011;25231;48.746;9.234;2022-12-24T16:43:45;11.57;;;6.67;;
39554;SDS011;25231;48.746;9.234;2022-12-24T16:46:13;7.83;;;5.50;;
39554;SDS011;25231;48.746;9.234;2022-12-24T16:48:39;7.87;;;7.17;;
39554;SDS011;25231;48.746;9.234;2022-12-24T16:51:07;7.47;;;6.77;;
39554;SDS011;25231;48.746;9.234;2022-12-24T16:53:32;15.03;;;10.43;;
39554;SDS011;25231;48.746;9.234;2022-12-24T16:55:58;12.37;;;9.97;;
39554;SDS011;25231;48.746;9.234;2022-12-24T16:58:24;13.17;;;11.77;;
39554;SDS011;25231;48.746;9.234;2022-12-24T17:00:49;9.13;;;8.00;;
39554;SDS011;25231;48.746;9.234;2022-12-24T17:03:15;13.27;;;7.20;;
39554;SDS011;25231;48.746;9.234;2022-12-24T17:05:41;11.67;;;9.77;;